createdAt,value
2018-11-10T00:02:08.447Z,98716.23
2018-11-10T00:04:40.837Z,98714.01
2018-11-10T00:07:08.913Z,98709.80
2018-11-10T00:09:37.037Z,98704.13
2018-11-10T00:12:05.635Z,98699.28
2018-11-10T00:14:33.684Z,98702.50
2018-11-10T00:17:01.757Z,98696.38
2018-11-10T00:19:30.352Z,98694.60
2018-11-10T00:21:58.459Z,98693.22
2018-11-10T00:24:26.580Z,98685.53
2018-11-10T00:26:55.065Z,98681.84
2018-11-10T00:29:23.144Z,98668.24
2018-11-10T00:31:51.216Z,98671.01
2018-11-10T00:34:19.647Z,98663.73
2018-11-10T00:36:47.734Z,98673.02
2018-11-10T00:39:15.819Z,98664.42
2018-11-10T00:41:44.321Z,98655.67
2018-11-10T00:44:12.445Z,98655.97
2018-11-10T00:46:40.548Z,98655.05
2018-11-10T00:49:09.098Z,98620.22
2018-11-10T00:51:37.231Z,98658.43
2018-11-10T00:54:05.868Z,98665.73
2018-11-10T00:56:34.397Z,98664.20
2018-11-10T00:59:02.614Z,98631.56
2018-11-10T01:01:30.801Z,98660.13
2018-11-10T01:03:59.386Z,98652.59
2018-11-10T01:06:27.450Z,98646.45
2018-11-10T01:08:55.504Z,98648.45
2018-11-10T01:11:23.981Z,98648.05
2018-11-10T01:13:52.049Z,98642.08
2018-11-10T01:16:20.117Z,98639.63
2018-11-10T01:18:48.713Z,98639.69
2018-11-10T01:21:16.764Z,98676.46
2018-11-10T01:23:45.049Z,98622.13
2018-11-10T01:26:14.319Z,98625.11
2018-11-10T01:28:42.645Z,98588.14
2018-11-10T01:31:10.885Z,98631.26
2018-11-10T01:33:39.062Z,98628.33
2018-11-10T01:36:07.105Z,98627.35
2018-11-10T01:38:35.149Z,98624.66
2018-11-10T01:41:03.713Z,98624.67
2018-11-10T01:43:32.018Z,98625.75
2018-11-10T01:46:00.456Z,98623.74
2018-11-10T01:48:28.960Z,98621.14
2018-11-10T01:50:57.221Z,98617.36
2018-11-10T01:53:25.324Z,98623.04
2018-11-10T01:55:53.753Z,98619.44
2018-11-10T01:58:22.832Z,98607.70
2018-11-10T02:00:51.797Z,98609.43
2018-11-10T02:03:20.224Z,98603.45
2018-11-10T02:05:48.349Z,98597.22
2018-11-10T02:08:16.433Z,98603.55
2018-11-10T02:10:45.349Z,98562.70
2018-11-10T02:13:13.555Z,98602.69
2018-11-10T02:15:41.763Z,98578.84
2018-11-10T02:18:10.252Z,98591.34
2018-11-10T02:20:38.356Z,98585.01
2018-11-10T02:23:06.846Z,98583.92
2018-11-10T02:25:35.122Z,98579.17
2018-11-10T02:28:03.500Z,98584.48
2018-11-10T02:30:32.187Z,98569.24
2018-11-10T02:33:00.269Z,98571.08
2018-11-10T02:35:29.103Z,98561.50
2018-11-10T02:37:57.514Z,98564.19
2018-11-10T02:40:25.614Z,98558.38
2018-11-10T02:42:53.720Z,98546.35
2018-11-10T02:45:22.135Z,98538.31
2018-11-10T02:47:50.961Z,98543.05
2018-11-10T02:50:19.281Z,98535.63
2018-11-10T02:52:48.136Z,98534.87
2018-11-10T02:55:16.411Z,98537.41
2018-11-10T02:57:44.484Z,98534.53
2018-11-10T03:00:13.650Z,98534.69
2018-11-10T03:02:42.223Z,98538.98
2018-11-10T03:05:10.913Z,98530.84
2018-11-10T03:07:39.516Z,98525.68
2018-11-10T03:10:09.135Z,98515.61
2018-11-10T03:12:38.324Z,98514.08
2018-11-10T03:15:07.300Z,98516.83
2018-11-10T03:17:35.537Z,98515.42
2018-11-10T03:20:04.185Z,98512.64
2018-11-10T03:22:32.356Z,98506.95
2018-11-10T03:25:00.389Z,98505.03
2018-11-10T03:27:28.818Z,98502.34
2018-11-10T03:29:57.636Z,98496.66
2018-11-10T03:32:27.277Z,98493.06
2018-11-10T03:34:56.776Z,98491.22
2018-11-10T03:37:24.812Z,98485.36
2018-11-10T03:39:52.876Z,98467.05
2018-11-10T03:42:20.925Z,98480.91
2018-11-10T03:44:48.956Z,98477.81
2018-11-10T03:47:17.020Z,98480.83
2018-11-10T03:49:45.476Z,98494.18
2018-11-10T03:52:13.578Z,98496.25
2018-11-10T03:54:41.772Z,98497.53
2018-11-10T03:57:10.364Z,98484.44
2018-11-10T03:59:38.516Z,98477.18
2018-11-10T04:02:06.683Z,98482.24
2018-11-10T04:04:34.756Z,98491.27
2018-11-10T04:07:02.962Z,98480.97
2018-11-10T04:09:31.528Z,98481.59
2018-11-10T04:11:59.622Z,98468.80
2018-11-10T04:14:27.676Z,98463.57
2018-11-10T04:16:55.695Z,98460.20
2018-11-10T04:19:23.815Z,98454.54
2018-11-10T04:21:52.085Z,98458.60
2018-11-10T04:24:20.151Z,98455.84
2018-11-10T04:26:48.776Z,98451.84
2018-11-10T04:29:16.918Z,98443.71
2018-11-10T04:31:44.977Z,98450.20
2018-11-10T04:34:13.385Z,98459.02
2018-11-10T04:36:41.417Z,98455.20
2018-11-10T04:39:09.536Z,98456.88
2018-11-10T04:41:38.453Z,98442.02
2018-11-10T04:44:06.670Z,98439.09
2018-11-10T04:46:34.809Z,98438.09
2018-11-10T04:49:03.000Z,98443.79
2018-11-10T04:51:31.582Z,98443.32
2018-11-10T04:53:59.741Z,98441.40
2018-11-10T04:56:28.349Z,98416.45
2018-11-10T04:58:56.723Z,98427.55
2018-11-10T05:01:24.830Z,98428.80
2018-11-10T05:03:52.885Z,98426.97
2018-11-10T05:06:21.601Z,98434.63
2018-11-10T05:08:49.816Z,98424.63
2018-11-10T05:11:23.795Z,98443.72
2018-11-10T05:13:57.626Z,98438.11
2018-11-10T05:16:25.845Z,98444.88
2018-11-10T05:18:54.114Z,98438.72
2018-11-10T05:21:22.503Z,98376.66
2018-11-10T05:23:51.181Z,98435.70
2018-11-10T05:26:19.807Z,98437.68
2018-11-10T05:28:47.907Z,98423.22
2018-11-10T05:31:16.169Z,98441.23
2018-11-10T05:33:44.132Z,98436.53
2018-11-10T05:36:12.172Z,98437.41
2018-11-10T05:38:40.200Z,98435.24
2018-11-10T05:41:08.384Z,98426.97
2018-11-10T05:43:36.438Z,98423.37
2018-11-10T05:46:04.773Z,98421.66
2018-11-10T05:48:33.052Z,98324.97
2018-11-10T05:51:01.662Z,98406.97
2018-11-10T05:53:29.953Z,98422.56
2018-11-10T05:55:58.003Z,98434.04
2018-11-10T05:58:26.128Z,98435.70
2018-11-10T06:00:54.500Z,98423.28
2018-11-10T06:03:22.631Z,98419.41
2018-11-10T06:05:50.743Z,98421.41
2018-11-10T06:08:19.125Z,98409.59
2018-11-10T06:10:47.315Z,98421.87
2018-11-10T06:13:15.532Z,98221.70
2018-11-10T06:15:44.016Z,98423.02
2018-11-10T06:18:12.474Z,98412.22
2018-11-10T06:20:41.155Z,98410.83
2018-11-10T06:23:09.457Z,98402.00
2018-11-10T06:25:38.309Z,98410.52
2018-11-10T06:28:08.228Z,98360.89
2018-11-10T06:30:36.744Z,98414.31
2018-11-10T06:33:05.721Z,98393.59
2018-11-10T06:35:33.928Z,98368.23
2018-11-10T06:38:03.142Z,98391.10
2018-11-10T06:40:33.218Z,98343.78
2018-11-10T06:43:03.244Z,98397.45
2018-11-10T06:45:32.808Z,98377.66
2018-11-10T06:48:03.522Z,98391.55
2018-11-10T06:50:31.805Z,98394.39
2018-11-10T06:53:00.867Z,98388.36
2018-11-10T06:55:29.100Z,98395.70
2018-11-10T06:57:57.395Z,98393.41
2018-11-10T07:00:25.975Z,98377.41
2018-11-10T07:02:54.029Z,98373.00
2018-11-10T07:05:23.413Z,98363.83
2018-11-10T07:07:51.761Z,98365.06
2018-11-10T07:10:19.881Z,98374.49
2018-11-10T07:12:47.996Z,98374.33
2018-11-10T07:15:16.402Z,98376.48
2018-11-10T07:17:44.824Z,98375.81
2018-11-10T07:20:12.877Z,98346.35
2018-11-10T07:22:41.445Z,98382.09
2018-11-10T07:25:10.015Z,98397.14
2018-11-10T07:27:38.072Z,98403.94
2018-11-10T07:30:08.326Z,98415.27
2018-11-10T07:32:36.469Z,98418.34
2018-11-10T07:35:04.829Z,98394.25
2018-11-10T07:37:33.366Z,98411.52
2018-11-10T07:40:01.481Z,98402.80
2018-11-10T07:42:29.778Z,98372.84
2018-11-10T07:44:58.156Z,98400.08
2018-11-10T07:47:26.967Z,98396.33
2018-11-10T07:49:55.068Z,98336.95
2018-11-10T07:52:28.067Z,98408.60
2018-11-10T07:55:00.127Z,98416.50
2018-11-10T07:57:30.553Z,98410.75
2018-11-10T08:00:00.136Z,98418.27
2018-11-10T08:02:34.332Z,98422.47
2018-11-10T08:05:08.367Z,98425.30
2018-11-10T08:07:40.154Z,98394.88
2018-11-10T08:10:12.435Z,98434.59
2018-11-10T08:12:43.764Z,98453.54
2018-11-10T08:15:16.882Z,98479.17
2018-11-10T08:17:48.846Z,98484.23
2018-11-10T08:20:21.656Z,98484.09
2018-11-10T08:22:53.367Z,98473.83
2018-11-10T08:25:25.539Z,98237.69
2018-11-10T08:27:55.721Z,98490.04
2018-11-10T08:30:26.472Z,98492.75
2018-11-10T08:32:57.119Z,98494.13
2018-11-10T08:35:25.479Z,98422.16
2018-11-10T08:37:54.049Z,98483.34
2018-11-10T08:40:22.163Z,98454.06
2018-11-10T08:42:50.240Z,98468.70
2018-11-10T08:45:18.929Z,98497.20
2018-11-10T08:47:46.976Z,98445.36
2018-11-10T08:50:16.667Z,98481.34
2018-11-10T08:52:44.850Z,98502.45
2018-11-10T08:55:13.674Z,98501.23
2018-11-10T08:57:42.626Z,98491.72
2018-11-10T09:00:11.459Z,98485.19
2018-11-10T09:02:39.555Z,98324.98
2018-11-10T09:05:08.957Z,98435.12
2018-11-10T09:07:37.400Z,98479.09
2018-11-10T09:10:06.567Z,98471.05
2018-11-10T09:12:35.077Z,98465.55
2018-11-10T09:15:05.929Z,98467.58
2018-11-10T09:17:34.155Z,98456.78
2018-11-10T09:20:03.435Z,98454.19
2018-11-10T09:22:31.785Z,98468.02
2018-11-10T09:24:59.989Z,98467.22
2018-11-10T09:27:28.255Z,98472.39
2018-11-10T09:29:56.650Z,98243.86
2018-11-10T09:32:25.069Z,98470.41
2018-11-10T09:34:53.103Z,98476.59
2018-11-10T09:37:21.255Z,98485.17
2018-11-10T09:39:49.533Z,98518.34
2018-11-10T09:42:17.744Z,98481.41
2018-11-10T09:44:47.132Z,98483.11
2018-11-10T09:47:16.249Z,98462.39
2018-11-10T09:49:44.322Z,98480.95
2018-11-10T09:52:12.384Z,98470.09
2018-11-10T09:54:40.504Z,98470.05
2018-11-10T09:57:08.584Z,98470.50
2018-11-10T09:59:36.695Z,98478.72
2018-11-10T10:02:06.087Z,98435.22
2018-11-10T10:04:33.975Z,98474.72
2018-11-10T10:07:02.077Z,98478.81
2018-11-10T10:09:30.197Z,98481.08
2018-11-10T10:11:58.352Z,98467.33
2018-11-10T10:14:26.729Z,98478.33
2018-11-10T10:16:55.179Z,98471.53
2018-11-10T10:19:23.340Z,98461.31
2018-11-10T10:21:51.866Z,98461.37
2018-11-10T10:24:20.381Z,98436.98
2018-11-10T10:26:48.460Z,98447.27
2018-11-10T10:29:16.703Z,98437.64
2018-11-10T10:31:45.234Z,98434.65
2018-11-10T10:34:13.903Z,98429.44
2018-11-10T10:36:41.920Z,98428.56
2018-11-10T10:39:10.546Z,98432.67
2018-11-10T10:41:39.146Z,98430.82
2018-11-10T10:44:08.760Z,98427.41
2018-11-10T10:46:37.109Z,98368.30
2018-11-10T10:49:05.653Z,98410.67
2018-11-10T10:51:33.792Z,98398.87
2018-11-10T10:54:02.230Z,98401.90
2018-11-10T10:56:30.824Z,98370.44
2018-11-10T10:58:59.086Z,98384.73
2018-11-10T11:03:34.061Z,98396.00
2018-11-10T11:06:02.498Z,98413.70
2018-11-10T11:08:31.717Z,98391.07
2018-11-10T11:10:59.824Z,98383.20
2018-11-10T11:13:28.227Z,98380.25
2018-11-10T11:15:56.985Z,98315.94
2018-11-10T11:18:25.080Z,98380.38
2018-11-10T11:20:53.669Z,98379.27
2018-11-10T11:23:24.067Z,98378.15
2018-11-10T11:25:52.180Z,98375.24
2018-11-10T11:28:20.621Z,98370.77
2018-11-10T11:30:49.946Z,98375.98
2018-11-10T11:33:18.841Z,98366.94
2018-11-10T11:35:47.515Z,98368.17
2018-11-10T11:38:16.154Z,98367.98
2018-11-10T11:40:44.700Z,98382.32
2018-11-10T11:43:12.861Z,98364.06
2018-11-10T11:45:41.342Z,98378.23
2018-11-10T11:48:09.528Z,98367.04
2018-11-10T11:50:37.660Z,98367.11
2018-11-10T11:53:06.708Z,98370.13
2018-11-10T11:55:35.251Z,98360.59
2018-11-10T11:58:04.178Z,98252.70
2018-11-10T12:00:32.360Z,98351.44
2018-11-10T12:03:01.439Z,98319.99
2018-11-10T12:05:29.624Z,98365.86
2018-11-10T12:07:58.153Z,98362.22
2018-11-10T12:10:26.227Z,98360.70
2018-11-10T12:12:54.282Z,98360.32
2018-11-10T12:15:22.369Z,98364.22
2018-11-10T12:17:50.805Z,98365.67
2018-11-10T12:20:18.973Z,98360.14
2018-11-10T12:22:47.648Z,98353.88
2018-11-10T12:25:15.755Z,98369.77
2018-11-10T12:27:44.276Z,98335.14
2018-11-10T12:30:12.795Z,98360.64
2018-11-10T12:32:41.236Z,98359.17
2018-11-10T12:35:10.591Z,98355.43
2018-11-10T12:37:39.121Z,98363.86
2018-11-10T12:40:09.379Z,98352.66
2018-11-10T12:42:38.620Z,98353.77
2018-11-10T12:45:07.970Z,98300.13
2018-11-10T12:47:37.237Z,98360.14
2018-11-10T12:50:09.092Z,98352.47
2018-11-10T12:52:37.813Z,98351.07
2018-11-10T12:55:06.990Z,98352.38
2018-11-10T12:57:35.968Z,98292.93
2018-11-10T13:00:12.724Z,98346.47
2018-11-10T13:02:42.439Z,98352.21
2018-11-10T13:05:11.221Z,98220.22
2018-11-10T13:07:41.565Z,98355.39
2018-11-10T13:10:10.632Z,98361.06
2018-11-10T13:12:40.304Z,98355.56
2018-11-10T13:15:08.956Z,98364.55
2018-11-10T13:17:37.404Z,98355.19
2018-11-10T13:20:07.846Z,98292.84
2018-11-10T13:22:36.088Z,98361.47
2018-11-10T13:25:05.227Z,98361.44
2018-11-10T13:27:35.353Z,98327.66
2018-11-10T13:30:06.636Z,98342.83
2018-11-10T13:32:35.218Z,98331.71
2018-11-10T13:35:05.925Z,98356.98
2018-11-10T13:37:36.354Z,98362.94
2018-11-10T13:40:04.689Z,98363.02
2018-11-10T13:42:33.242Z,98367.95
2018-11-10T13:45:01.577Z,98322.50
2018-11-10T13:47:29.949Z,98362.50
2018-11-10T13:49:58.657Z,98364.05
2018-11-10T13:52:27.088Z,98367.59
2018-11-10T13:54:56.925Z,98252.89
2018-11-10T13:57:26.130Z,98319.16
2018-11-10T13:59:54.664Z,98365.39
2018-11-10T14:02:23.670Z,98357.87
2018-11-10T14:04:52.363Z,98354.86
2018-11-10T14:07:20.428Z,98364.03
2018-11-10T14:09:48.600Z,98365.76
2018-11-10T14:12:17.085Z,98348.84
2018-11-10T14:14:45.264Z,98354.48
2018-11-10T14:17:13.797Z,98373.24
2018-11-10T14:19:43.191Z,98369.08
2018-11-10T14:22:11.548Z,98362.75
2018-11-10T14:24:39.708Z,98366.88
2018-11-10T14:27:08.268Z,98332.39
2018-11-10T14:29:36.457Z,98365.41
2018-11-10T14:32:05.585Z,98338.82
2018-11-10T14:34:35.254Z,98367.99
2018-11-10T14:37:03.365Z,98363.80
2018-11-10T14:39:31.457Z,98373.09
2018-11-10T14:41:59.913Z,98364.00
2018-11-10T14:44:28.429Z,98365.42
2018-11-10T14:46:56.556Z,98384.41
2018-11-10T14:49:27.793Z,98367.78
2018-11-10T14:51:56.132Z,98362.36
2018-11-10T14:54:24.451Z,98357.61
2018-11-10T14:56:53.334Z,98241.29
2018-11-10T14:59:31.112Z,98166.28
2018-11-10T15:02:00.508Z,98376.94
2018-11-10T15:04:29.388Z,98376.96
2018-11-10T15:06:59.347Z,98381.56
2018-11-10T15:09:28.173Z,98378.02
2018-11-10T15:11:56.578Z,98372.97
2018-11-10T15:14:25.561Z,98381.76
2018-11-10T15:16:54.353Z,98397.02
2018-11-10T15:19:23.334Z,98336.19
2018-11-10T15:21:51.647Z,98342.00
2018-11-10T15:24:20.458Z,98370.48
2018-11-10T15:26:48.945Z,98360.64
2018-11-10T15:29:17.072Z,98376.87
2018-11-10T15:31:46.061Z,98378.16
2018-11-10T15:34:14.701Z,98407.73
2018-11-10T15:36:43.761Z,98373.47
2018-11-10T15:39:12.897Z,98381.20
2018-11-10T15:41:41.397Z,98380.94
2018-11-10T15:44:09.691Z,98360.10
2018-11-10T15:46:38.222Z,98343.23
2018-11-10T15:49:06.619Z,98382.72
2018-11-10T15:51:36.732Z,98377.52
2018-11-10T15:54:05.517Z,98382.98
2018-11-10T15:56:33.916Z,98378.70
2018-11-10T15:59:02.688Z,98383.55
2018-11-10T16:01:31.298Z,98380.99
2018-11-10T16:03:59.478Z,98377.19
2018-11-10T16:06:27.612Z,98386.33
2018-11-10T16:08:56.409Z,98381.12
2018-11-10T16:11:24.689Z,98329.30
2018-11-10T16:13:53.871Z,98385.19
2018-11-10T16:16:22.322Z,98387.88
2018-11-10T16:18:50.750Z,98389.02
2018-11-10T16:21:20.321Z,98378.63
2018-11-10T16:23:48.660Z,98353.66
2018-11-10T16:26:16.903Z,98380.68
2018-11-10T16:28:45.515Z,98372.15
2018-11-10T16:31:13.681Z,98380.92
2018-11-10T16:33:42.554Z,98377.00
2018-11-10T16:36:10.665Z,98378.89
2018-11-10T16:38:38.777Z,98384.63
2018-11-10T16:41:06.922Z,98382.23
2018-11-10T16:43:36.265Z,98256.52
2018-11-10T16:46:04.889Z,98386.41
2018-11-10T16:48:33.073Z,98386.93
2018-11-10T16:51:01.329Z,98387.57
2018-11-10T16:53:30.321Z,98394.92
2018-11-10T16:55:58.424Z,98387.69
2018-11-10T16:58:31.721Z,98202.15
2018-11-10T17:01:00.615Z,98388.08
2018-11-10T17:03:29.298Z,98386.70
2018-11-10T17:05:57.596Z,98398.36
2018-11-10T17:08:25.806Z,98389.49
2018-11-10T17:10:55.316Z,98388.34
2018-11-10T17:13:27.830Z,98393.55
2018-11-10T17:15:56.049Z,98395.56
2018-11-10T17:18:24.411Z,98359.30
2018-11-10T17:20:52.515Z,98400.39
2018-11-10T17:23:20.869Z,98400.37
2018-11-10T17:25:48.980Z,98404.56
2018-11-10T17:28:17.223Z,98332.92
2018-11-10T17:30:45.589Z,98368.69
2018-11-10T17:33:15.442Z,98399.50
2018-11-10T17:35:43.599Z,98397.88
2018-11-10T17:38:11.840Z,98378.45
2018-11-10T17:40:40.474Z,98397.23
2018-11-10T17:43:10.009Z,98114.03
2018-11-10T17:45:38.057Z,98389.34
2018-11-10T17:48:06.523Z,98392.02
2018-11-10T17:50:34.626Z,98363.98
2018-11-10T17:53:03.021Z,98324.67
2018-11-10T17:55:31.525Z,98393.16
2018-11-10T17:57:59.772Z,98406.21
2018-11-10T18:00:27.842Z,98400.77
2018-11-10T18:02:56.276Z,98407.34
2018-11-10T18:05:24.524Z,98405.58
2018-11-10T18:07:52.625Z,98406.85
2018-11-10T18:10:21.337Z,98408.23
2018-11-10T18:12:50.721Z,98402.94
2018-11-10T18:15:18.858Z,98396.45
2018-11-10T18:17:47.479Z,98397.88
2018-11-10T18:20:16.561Z,98398.38
2018-11-10T18:22:44.996Z,98398.50
2018-11-10T18:25:13.639Z,98388.36
2018-11-10T18:27:41.830Z,98394.05
2018-11-10T18:30:11.598Z,98385.03
2018-11-10T18:32:40.440Z,98379.45
2018-11-10T18:35:09.315Z,98381.89
2018-11-10T18:37:37.394Z,98372.25
2018-11-10T18:40:06.938Z,98366.80
2018-11-10T18:42:34.978Z,98361.98
2018-11-10T18:45:04.208Z,98385.05
2018-11-10T18:47:32.624Z,98361.34
2018-11-10T18:50:00.763Z,98371.34
2018-11-10T18:52:29.093Z,98361.98
2018-11-10T18:54:57.511Z,98371.48
2018-11-10T18:57:25.898Z,98338.72
2018-11-10T18:59:55.255Z,98364.24
2018-11-10T19:02:23.840Z,98369.19
2018-11-10T19:04:52.184Z,98323.80
2018-11-10T19:07:20.460Z,98366.66
2018-11-10T19:09:48.969Z,98367.28
2018-11-10T19:12:17.143Z,98378.45
2018-11-10T19:14:45.285Z,98264.59
2018-11-10T19:17:13.364Z,98373.77
2018-11-10T19:19:41.535Z,98371.34
2018-11-10T19:22:09.894Z,98369.44
2018-11-10T19:24:37.998Z,98371.20
2018-11-10T19:27:06.250Z,98378.44
2018-11-10T19:29:34.809Z,98378.97
2018-11-10T19:32:02.906Z,98374.39
2018-11-10T19:34:31.048Z,98358.30
2018-11-10T19:36:59.120Z,98365.88
2018-11-10T19:39:27.385Z,98375.55
2018-11-10T19:41:55.491Z,98367.53
2018-11-10T19:44:25.146Z,98365.25
2018-11-10T19:46:53.240Z,98366.39
2018-11-10T19:49:22.082Z,98373.48
2018-11-10T19:51:52.455Z,98354.09
2018-11-10T19:54:20.276Z,98363.95
2018-11-10T19:56:48.366Z,98402.27
2018-11-10T19:59:16.912Z,98367.89
2018-11-10T20:01:45.008Z,98367.25
2018-11-10T20:04:13.442Z,98368.87
2018-11-10T20:06:41.702Z,98370.53
2018-11-10T20:09:10.382Z,98372.17
2018-11-10T20:11:38.513Z,98372.94
2018-11-10T20:14:07.530Z,98365.20
2018-11-10T20:16:35.667Z,98371.81
2018-11-10T20:19:03.855Z,98366.98
2018-11-10T20:21:31.943Z,98350.90
2018-11-10T20:24:00.115Z,98364.09
2018-11-10T20:26:28.390Z,98365.09
2018-11-10T20:28:56.915Z,98370.04
2018-11-10T20:31:24.968Z,98366.51
2018-11-10T20:33:53.145Z,98375.39
2018-11-10T20:36:21.373Z,98377.43
2018-11-10T20:38:49.629Z,98384.66
2018-11-10T20:41:17.777Z,98424.88
2018-11-10T20:43:46.294Z,98380.86
2018-11-10T20:46:14.375Z,98385.02
2018-11-10T20:48:42.987Z,98373.77
2018-11-10T20:51:11.645Z,98378.33
2018-11-10T20:53:39.768Z,98374.28
2018-11-10T20:56:07.857Z,98366.16
2018-11-10T20:58:36.345Z,98374.64
2018-11-10T21:01:04.489Z,98356.64
2018-11-10T21:03:32.792Z,98360.71
2018-11-10T21:06:01.845Z,98381.88
2018-11-10T21:08:29.970Z,98356.75
2018-11-10T21:10:58.117Z,98370.20
2018-11-10T21:13:26.681Z,98371.48
2018-11-10T21:15:54.774Z,98373.75
2018-11-10T21:18:23.523Z,98373.76
2018-11-10T21:20:52.076Z,98377.80
2018-11-10T21:23:20.132Z,98375.91
2018-11-10T21:25:48.205Z,98371.61
2018-11-10T21:28:16.844Z,98368.81
2018-11-10T21:30:44.944Z,98362.97
2018-11-10T21:33:13.136Z,98365.38
2018-11-10T21:35:41.619Z,98365.64
2018-11-10T21:38:09.606Z,98366.39
2018-11-10T21:40:37.763Z,98360.83
2018-11-10T21:43:06.264Z,98342.32
2018-11-10T21:45:34.391Z,98360.68
2018-11-10T21:48:02.532Z,98361.58
2018-11-10T21:50:31.022Z,98363.47
2018-11-10T21:52:59.177Z,98360.04
2018-11-10T21:55:27.297Z,98359.66
2018-11-10T21:57:55.535Z,98365.50
2018-11-10T22:00:23.754Z,98362.72
2018-11-10T22:02:53.737Z,98238.00
2018-11-10T22:05:21.836Z,98354.72
2018-11-10T22:07:49.962Z,98355.99
2018-11-10T22:10:19.044Z,98346.09
2018-11-10T22:12:47.229Z,98357.89
2018-11-10T22:15:16.726Z,98352.05
2018-11-10T22:17:45.264Z,98354.72
2018-11-10T22:20:14.683Z,98363.23
2018-11-10T22:22:42.790Z,98363.23
2018-11-10T22:25:12.029Z,98367.02
2018-11-10T22:27:41.486Z,98334.80
2018-11-10T22:30:11.949Z,98359.17
2018-11-10T22:32:40.469Z,98358.40
2018-11-10T22:35:09.139Z,98367.14
2018-11-10T22:37:37.415Z,98355.99
2018-11-10T22:40:08.650Z,98363.83
2018-11-10T22:42:37.555Z,98364.59
2018-11-10T22:45:06.476Z,98360.15
2018-11-10T22:47:34.580Z,98363.72
2018-11-10T22:50:02.725Z,98371.93
2018-11-10T22:52:30.955Z,98372.56
2018-11-10T22:54:59.471Z,98372.68
2018-11-10T22:57:27.524Z,98371.55
2018-11-10T22:59:55.641Z,98375.73
2018-11-10T23:02:23.762Z,98369.39
2018-11-10T23:04:52.000Z,98359.74
2018-11-10T23:07:20.379Z,98361.64
2018-11-10T23:09:49.044Z,98373.84
2018-11-10T23:12:17.229Z,98374.34
2018-11-10T23:14:45.364Z,98374.74
2018-11-10T23:17:13.560Z,98372.21
2018-11-10T23:19:41.627Z,98364.23
2018-11-10T23:22:09.731Z,98378.69
2018-11-10T23:24:38.158Z,98381.59
2018-11-10T23:27:06.249Z,98378.06
2018-11-10T23:29:34.312Z,98374.00
2018-11-10T23:32:02.428Z,98369.42
2018-11-10T23:34:30.500Z,98376.52
2018-11-10T23:36:58.597Z,98369.19
2018-11-10T23:39:27.001Z,98360.05
2018-11-10T23:41:55.110Z,98368.17
2018-11-10T23:44:23.836Z,98284.07
2018-11-10T23:46:53.024Z,98362.98
2018-11-10T23:49:21.151Z,98360.81
2018-11-10T23:51:49.390Z,98369.17
2018-11-10T23:54:17.936Z,98356.15
2018-11-10T23:56:45.974Z,98351.31
2018-11-10T23:59:14.082Z,98351.97
